createdAt,value
2016-08-14T00:01:18.372Z,16.92
2016-08-14T00:03:28.219Z,16.92
2016-08-14T00:04:21.897Z,16.93
2016-08-14T00:05:22.633Z,16.93
2016-08-14T00:06:22.960Z,16.94
2016-08-14T00:07:29.539Z,16.96
2016-08-14T00:08:27.981Z,17.02
2016-08-14T00:09:28.315Z,16.98
2016-08-14T00:10:23.477Z,16.93
2016-08-14T00:11:31.167Z,16.94
2016-08-14T00:12:15.663Z,16.93
2016-08-14T00:13:20.620Z,17.05
2016-08-14T00:14:25.737Z,17.04
2016-08-14T00:15:28.662Z,17.02
2016-08-14T00:16:26.580Z,17.03
2016-08-14T00:19:19.621Z,17.05
2016-08-14T00:20:18.994Z,17.01
2016-08-14T00:21:17.959Z,17.01
2016-08-14T00:22:14.445Z,17.05
2016-08-14T00:23:21.182Z,17.11
2016-08-14T00:25:17.675Z,17.03
2016-08-14T00:26:28.584Z,17.02
2016-08-14T00:27:22.241Z,17.05
2016-08-14T00:28:28.409Z,17.05
2016-08-14T00:29:33.016Z,17.06
2016-08-14T00:30:14.579Z,17.05
2016-08-14T00:32:27.490Z,17.00
2016-08-14T00:33:29.819Z,17.03
2016-08-14T00:34:28.386Z,17.01
2016-08-14T00:35:28.871Z,17.05
2016-08-14T00:36:18.041Z,17.04
2016-08-14T00:37:19.975Z,17.00
2016-08-14T00:39:27.416Z,17.00
2016-08-14T00:42:22.781Z,17.04
2016-08-14T00:43:31.852Z,17.03
2016-08-14T00:44:28.354Z,16.97
2016-08-14T00:45:28.401Z,17.05
2016-08-14T00:46:17.961Z,17.03
2016-08-14T00:48:17.859Z,17.11
2016-08-14T00:49:38.526Z,17.15
2016-08-14T00:50:29.648Z,17.14
2016-08-14T00:51:17.231Z,17.13
2016-08-14T00:53:27.999Z,17.10
2016-08-14T00:54:13.794Z,17.08
2016-08-14T00:55:28.037Z,17.08
2016-08-14T00:56:19.963Z,17.08
2016-08-14T00:57:28.759Z,17.23
2016-08-14T00:59:19.263Z,17.14
2016-08-14T01:00:19.296Z,17.12
2016-08-14T01:01:27.858Z,17.14
2016-08-14T01:02:13.470Z,17.20
2016-08-14T01:03:21.487Z,17.28
2016-08-14T01:04:21.245Z,17.21
2016-08-14T01:05:18.614Z,17.28
2016-08-14T01:06:18.369Z,17.22
2016-08-14T01:09:28.271Z,17.17
2016-08-14T01:10:15.024Z,17.18
2016-08-14T01:11:19.094Z,17.15
2016-08-14T01:12:27.764Z,17.21
2016-08-14T01:13:15.557Z,17.19
2016-08-14T01:15:33.715Z,17.23
2016-08-14T01:16:39.734Z,17.18
2016-08-14T01:17:13.984Z,17.16
2016-08-14T01:18:28.386Z,17.21
2016-08-14T01:19:13.187Z,17.27
2016-08-14T01:20:17.573Z,17.16
2016-08-14T01:21:17.976Z,17.15
2016-08-14T01:22:16.090Z,17.17
2016-08-14T01:23:21.269Z,17.11
2016-08-14T01:24:23.108Z,17.12
2016-08-14T01:25:33.283Z,17.18
2016-08-14T01:26:28.644Z,17.15
2016-08-14T01:27:14.014Z,17.09
2016-08-14T01:28:12.702Z,17.10
2016-08-14T01:31:25.954Z,17.03
2016-08-14T01:32:28.170Z,17.01
2016-08-14T01:33:14.800Z,17.04
2016-08-14T01:34:15.654Z,17.08
2016-08-14T01:35:14.791Z,17.13
2016-08-14T01:40:28.644Z,17.03
2016-08-14T01:41:34.282Z,16.97
2016-08-14T01:42:16.990Z,16.99
2016-08-14T01:43:27.986Z,17.01
2016-08-14T01:44:16.796Z,17.08
2016-08-14T01:46:18.693Z,17.02
2016-08-14T01:47:17.449Z,16.98
2016-08-14T01:48:27.969Z,17.03
2016-08-14T01:49:21.146Z,17.11
2016-08-14T01:51:28.460Z,17.06
2016-08-14T01:52:13.291Z,16.96
2016-08-14T01:54:18.576Z,16.92
2016-08-14T01:55:31.144Z,16.92
2016-08-14T01:57:21.051Z,16.92
2016-08-14T01:58:13.575Z,16.95
2016-08-14T02:01:28.508Z,16.96
2016-08-14T02:02:27.746Z,16.98
2016-08-14T02:03:18.150Z,16.94
2016-08-14T02:04:41.797Z,16.91
2016-08-14T02:05:34.547Z,16.89
2016-08-14T02:08:32.570Z,16.85
2016-08-14T02:10:33.446Z,16.85
2016-08-14T02:11:28.266Z,16.89
2016-08-14T02:13:27.769Z,16.88
2016-08-14T02:14:28.106Z,16.88
2016-08-14T02:17:22.303Z,16.91
2016-08-14T02:18:27.552Z,17.02
2016-08-14T02:19:29.402Z,17.01
2016-08-14T02:20:25.808Z,17.06
2016-08-14T02:22:17.102Z,17.10
2016-08-14T02:23:28.081Z,17.16
2016-08-14T02:24:31.970Z,17.14
2016-08-14T02:25:18.188Z,17.13
2016-08-14T02:28:31.749Z,17.01
2016-08-14T02:29:30.198Z,17.05
2016-08-14T02:30:14.936Z,17.07
2016-08-14T02:31:18.350Z,17.09
2016-08-14T02:32:19.420Z,17.12
2016-08-14T02:34:31.380Z,17.14
2016-08-14T02:36:23.805Z,17.16
2016-08-14T02:37:28.855Z,17.10
2016-08-14T02:38:27.905Z,17.10
2016-08-14T02:39:18.161Z,17.17
2016-08-14T02:42:19.381Z,17.20
2016-08-14T02:43:17.571Z,17.17
2016-08-14T02:44:20.786Z,17.11
2016-08-14T02:46:17.430Z,17.11
2016-08-14T02:47:27.805Z,17.10
2016-08-14T02:48:28.359Z,17.13
2016-08-14T02:49:12.955Z,17.15
2016-08-14T02:50:19.011Z,17.14
2016-08-14T02:52:18.067Z,17.04
2016-08-14T02:53:28.407Z,17.03
2016-08-14T02:54:28.111Z,17.08
2016-08-14T02:55:37.640Z,17.04
2016-08-14T02:56:28.428Z,17.04
2016-08-14T02:57:22.042Z,16.99
2016-08-14T02:58:15.425Z,17.01
2016-08-14T02:59:28.218Z,16.97
2016-08-14T03:00:25.587Z,17.01
2016-08-14T03:02:28.520Z,16.97
2016-08-14T03:03:22.873Z,16.99
2016-08-14T03:04:27.983Z,17.01
2016-08-14T03:05:28.111Z,17.04
2016-08-14T03:06:28.603Z,17.04
2016-08-14T03:08:18.107Z,17.06
2016-08-14T03:09:14.395Z,17.02
2016-08-14T03:10:17.797Z,16.95
2016-08-14T03:12:18.081Z,16.91
2016-08-14T03:14:28.663Z,16.97
2016-08-14T03:15:27.673Z,17.00
2016-08-14T03:16:18.159Z,16.97
2016-08-14T03:17:22.989Z,17.00
2016-08-14T03:18:28.037Z,16.92
2016-08-14T03:19:16.806Z,16.89
2016-08-14T03:20:19.958Z,16.85
2016-08-14T03:22:28.207Z,16.81
2016-08-14T03:23:28.492Z,16.83
2016-08-14T03:24:27.908Z,16.81
2016-08-14T03:25:26.908Z,16.76
2016-08-14T03:26:17.594Z,16.77
2016-08-14T03:27:22.758Z,16.75
2016-08-14T03:28:17.919Z,16.72
2016-08-14T03:29:15.343Z,16.71
2016-08-14T03:30:14.614Z,16.77
2016-08-14T03:33:20.643Z,16.82
2016-08-14T03:34:22.570Z,16.83
2016-08-14T03:35:19.289Z,16.85
2016-08-14T03:36:28.931Z,16.83
2016-08-14T03:37:18.137Z,16.80
2016-08-14T03:38:23.256Z,16.85
2016-08-14T03:42:18.327Z,16.80
2016-08-14T03:43:14.338Z,16.80
2016-08-14T03:44:20.340Z,16.75
2016-08-14T03:45:17.847Z,16.79
2016-08-14T03:46:28.510Z,16.81
2016-08-14T03:48:21.252Z,16.75
2016-08-14T03:51:14.233Z,16.74
2016-08-14T03:53:17.180Z,16.75
2016-08-14T03:54:23.208Z,16.70
2016-08-14T03:55:27.741Z,16.68
2016-08-14T03:56:28.559Z,16.71
2016-08-14T03:57:28.558Z,16.71
2016-08-14T03:58:19.139Z,16.74
2016-08-14T03:59:20.244Z,16.75
2016-08-14T04:00:28.480Z,16.77
2016-08-14T04:02:28.476Z,16.71
2016-08-14T04:03:12.893Z,16.71
2016-08-14T04:04:20.579Z,16.73
2016-08-14T04:05:27.998Z,16.74
2016-08-14T04:06:18.627Z,16.73
2016-08-14T04:08:28.434Z,16.70
2016-08-14T04:09:34.873Z,16.70
2016-08-14T04:10:27.831Z,16.75
2016-08-14T04:11:26.802Z,16.80
2016-08-14T04:12:22.958Z,16.79
2016-08-14T04:13:12.038Z,16.75
2016-08-14T04:14:28.152Z,16.76
2016-08-14T04:16:28.390Z,16.73
2016-08-14T04:17:18.959Z,16.74
2016-08-14T04:18:19.219Z,16.68
2016-08-14T04:19:26.923Z,16.67
2016-08-14T04:23:17.907Z,16.73
2016-08-14T04:24:27.749Z,16.75
2016-08-14T04:26:17.818Z,16.69
2016-08-14T04:27:20.096Z,16.61
2016-08-14T04:28:20.312Z,16.62
2016-08-14T04:30:15.575Z,16.59
2016-08-14T04:31:22.657Z,16.60
2016-08-14T04:32:27.948Z,16.67
2016-08-14T04:33:23.597Z,16.74
2016-08-14T04:34:29.948Z,16.72
2016-08-14T04:36:22.598Z,16.73
2016-08-14T04:37:28.426Z,16.76
2016-08-14T04:38:39.003Z,16.71
2016-08-14T04:40:27.629Z,16.63
2016-08-14T04:41:22.819Z,16.59
2016-08-14T04:43:11.828Z,16.56
2016-08-14T04:44:15.366Z,16.53
2016-08-14T04:46:17.919Z,16.53
2016-08-14T04:47:18.089Z,16.51
2016-08-14T04:49:14.299Z,16.48
2016-08-14T04:50:12.897Z,16.46
2016-08-14T04:51:23.093Z,16.50
2016-08-14T04:52:18.198Z,16.47
2016-08-14T04:53:20.288Z,16.47
2016-08-14T04:54:11.735Z,16.47
2016-08-14T04:56:17.709Z,16.46
2016-08-14T05:00:19.794Z,16.64
2016-08-14T05:01:14.525Z,16.67
2016-08-14T05:02:27.549Z,16.66
2016-08-14T05:04:20.006Z,16.60
2016-08-14T05:06:23.602Z,16.60
2016-08-14T05:07:13.647Z,16.60
2016-08-14T05:09:28.513Z,16.60
2016-08-14T05:10:28.701Z,16.61
2016-08-14T05:11:29.047Z,16.63
2016-08-14T05:12:28.480Z,16.69
2016-08-14T05:13:20.606Z,16.70
2016-08-14T05:14:28.088Z,16.69
2016-08-14T05:15:27.998Z,16.65
2016-08-14T05:17:17.249Z,16.73
2016-08-14T05:18:21.755Z,16.82
2016-08-14T05:20:28.279Z,16.89
2016-08-14T05:22:22.955Z,16.81
2016-08-14T05:23:17.719Z,16.88
2016-08-14T05:24:28.120Z,16.90
2016-08-14T05:25:28.237Z,16.95
2016-08-14T05:26:22.621Z,16.94
2016-08-14T05:27:28.751Z,16.96
2016-08-14T05:29:19.705Z,17.05
2016-08-14T05:30:18.872Z,17.11
2016-08-14T05:31:19.111Z,17.15
2016-08-14T05:32:13.197Z,17.20
2016-08-14T05:33:20.138Z,17.17
2016-08-14T05:34:28.595Z,17.16
2016-08-14T05:35:17.223Z,17.19
2016-08-14T05:36:28.277Z,17.14
2016-08-14T05:37:26.947Z,17.14
2016-08-14T05:38:30.038Z,17.18
2016-08-14T05:42:17.097Z,17.33
2016-08-14T05:43:27.712Z,17.40
2016-08-14T05:44:19.464Z,17.47
2016-08-14T05:45:13.929Z,17.53
2016-08-14T05:47:19.521Z,17.63
2016-08-14T05:48:20.774Z,17.68
2016-08-14T05:49:15.525Z,17.68
2016-08-14T05:50:18.024Z,17.71
2016-08-14T05:52:18.460Z,17.72
2016-08-14T05:53:30.077Z,17.71
2016-08-14T05:54:28.937Z,17.72
2016-08-14T05:55:21.263Z,17.73
2016-08-14T05:57:22.982Z,17.74
2016-08-14T05:58:15.920Z,17.79
2016-08-14T05:59:18.556Z,17.78
2016-08-14T06:00:18.576Z,17.78
2016-08-14T06:01:16.084Z,17.81
2016-08-14T06:02:18.600Z,17.85
2016-08-14T06:03:28.747Z,17.85
2016-08-14T06:04:15.579Z,17.87
2016-08-14T06:05:14.432Z,17.91
2016-08-14T06:06:18.190Z,17.93
2016-08-14T06:07:18.069Z,17.92
2016-08-14T06:08:15.050Z,17.95
2016-08-14T06:09:28.649Z,17.96
2016-08-14T06:11:29.003Z,17.95
2016-08-14T06:12:28.743Z,17.94
2016-08-14T06:13:21.802Z,17.97
2016-08-14T06:15:12.106Z,17.99
2016-08-14T06:16:17.973Z,18.04
2016-08-14T06:17:12.534Z,18.04
2016-08-14T06:19:27.827Z,18.14
2016-08-14T06:21:21.864Z,18.20
2016-08-14T06:22:18.513Z,18.23
2016-08-14T06:24:20.710Z,18.31
2016-08-14T06:25:32.139Z,18.33
2016-08-14T06:28:27.996Z,18.38
2016-08-14T06:29:28.157Z,18.44
2016-08-14T06:30:26.301Z,18.49
2016-08-14T06:31:28.694Z,18.50
2016-08-14T06:33:14.149Z,18.58
2016-08-14T06:34:21.376Z,18.64
2016-08-14T06:35:21.581Z,18.65
2016-08-14T06:37:17.611Z,18.75
2016-08-14T06:38:32.723Z,18.74
2016-08-14T06:39:23.039Z,18.79
2016-08-14T06:40:20.170Z,18.79
2016-08-14T06:41:29.256Z,18.84
2016-08-14T06:42:27.374Z,18.89
2016-08-14T06:45:28.467Z,19.02
2016-08-14T06:47:17.737Z,19.10
2016-08-14T06:48:29.205Z,19.13
2016-08-14T06:49:17.642Z,19.16
2016-08-14T06:51:17.662Z,19.32
2016-08-14T06:53:23.203Z,19.32
2016-08-14T06:56:23.335Z,19.31
2016-08-14T06:57:17.871Z,19.36
2016-08-14T06:58:11.880Z,19.42
2016-08-14T06:59:20.879Z,19.44
2016-08-14T07:00:19.106Z,19.43
2016-08-14T07:01:17.924Z,19.43
2016-08-14T07:02:27.945Z,19.50
2016-08-14T07:03:16.795Z,19.53
2016-08-14T07:04:19.981Z,19.54
2016-08-14T07:05:18.112Z,19.64
2016-08-14T07:08:20.568Z,19.76
2016-08-14T07:10:15.823Z,19.77
2016-08-14T07:11:22.995Z,19.68
2016-08-14T07:12:22.885Z,19.74
2016-08-14T07:13:15.995Z,19.84
2016-08-14T07:14:19.281Z,19.88
2016-08-14T07:15:14.545Z,19.85
2016-08-14T07:16:18.150Z,19.78
2016-08-14T07:17:28.706Z,19.80
2016-08-14T07:18:13.168Z,19.81
2016-08-14T07:19:13.326Z,19.79
2016-08-14T07:20:20.572Z,19.90
2016-08-14T07:21:33.225Z,19.92
2016-08-14T07:22:23.007Z,19.94
2016-08-14T07:23:17.726Z,19.97
2016-08-14T07:24:20.488Z,19.95
2016-08-14T07:28:27.741Z,20.09
2016-08-14T07:29:26.293Z,20.10
2016-08-14T07:30:18.360Z,20.09
2016-08-14T07:31:18.930Z,20.05
2016-08-14T07:32:18.710Z,20.06
2016-08-14T07:33:28.329Z,20.09
2016-08-14T07:36:28.796Z,20.23
2016-08-14T07:37:17.532Z,20.26
2016-08-14T07:38:17.278Z,20.28
2016-08-14T07:39:22.907Z,20.27
2016-08-14T07:40:18.313Z,20.20
2016-08-14T07:41:27.735Z,20.28
2016-08-14T07:45:29.255Z,20.57
2016-08-14T07:46:33.354Z,20.56
2016-08-14T07:47:23.334Z,20.47
2016-08-14T07:49:16.975Z,20.39
2016-08-14T07:53:27.999Z,20.58
2016-08-14T07:54:12.094Z,20.58
2016-08-14T07:55:12.497Z,20.56
2016-08-14T07:56:12.216Z,20.54
2016-08-14T07:57:28.765Z,20.59
2016-08-14T07:58:32.650Z,20.54
2016-08-14T07:59:22.969Z,20.53
2016-08-14T08:00:28.841Z,20.55
2016-08-14T08:01:29.275Z,20.53
2016-08-14T08:02:28.909Z,20.54
2016-08-14T08:03:26.746Z,20.58
2016-08-14T08:04:20.544Z,20.65
2016-08-14T08:06:12.669Z,20.71
2016-08-14T08:07:28.513Z,20.66
2016-08-14T08:09:20.329Z,20.65
2016-08-14T08:10:20.526Z,20.62
2016-08-14T08:11:26.438Z,20.70
2016-08-14T08:14:29.002Z,20.62
2016-08-14T08:15:17.413Z,20.63
2016-08-14T08:16:22.663Z,20.64
2016-08-14T08:17:18.805Z,20.64
2016-08-14T08:18:18.555Z,20.67
2016-08-14T08:20:19.337Z,20.69
2016-08-14T08:22:23.115Z,20.81
2016-08-14T08:23:35.485Z,20.84
2016-08-14T08:24:16.705Z,20.87
2016-08-14T08:25:22.572Z,20.91
2016-08-14T08:26:17.432Z,20.94
2016-08-14T08:27:46.597Z,20.92
2016-08-14T08:29:18.424Z,20.94
2016-08-14T08:30:17.506Z,20.93
2016-08-14T08:31:13.013Z,20.86
2016-08-14T08:33:23.240Z,20.85
2016-08-14T08:35:23.648Z,20.87
2016-08-14T08:36:11.787Z,20.95
2016-08-14T08:37:29.377Z,21.05
2016-08-14T08:40:48.726Z,21.19
2016-08-14T08:41:19.738Z,21.31
2016-08-14T08:42:22.922Z,21.34
2016-08-14T08:43:17.595Z,21.34
2016-08-14T08:44:28.300Z,21.33
2016-08-14T08:48:19.362Z,21.39
2016-08-14T08:49:23.728Z,21.48
2016-08-14T08:50:20.410Z,21.48
2016-08-14T08:51:17.655Z,21.51
2016-08-14T08:52:29.403Z,21.48
2016-08-14T08:53:12.021Z,21.43
2016-08-14T08:54:17.848Z,21.46
2016-08-14T08:55:19.382Z,21.57
2016-08-14T08:56:17.625Z,21.71
2016-08-14T08:57:17.795Z,21.72
2016-08-14T08:58:22.713Z,21.63
2016-08-14T08:59:17.782Z,21.52
2016-08-14T09:03:18.393Z,21.63
2016-08-14T09:04:15.255Z,21.71
2016-08-14T09:07:17.090Z,21.69
2016-08-14T09:10:18.395Z,21.50
2016-08-14T09:11:17.377Z,21.54
2016-08-14T09:12:23.492Z,21.56
2016-08-14T09:13:34.364Z,21.69
2016-08-14T09:14:19.128Z,21.77
2016-08-14T09:15:15.034Z,21.90
2016-08-14T09:16:23.340Z,21.88
2016-08-14T09:17:21.019Z,21.85
2016-08-14T09:18:20.913Z,21.87
2016-08-14T09:19:13.117Z,21.87
2016-08-14T09:22:17.457Z,22.08
2016-08-14T09:23:28.470Z,22.17
2016-08-14T09:24:20.269Z,22.12
2016-08-14T09:25:38.170Z,22.03
2016-08-14T09:26:18.129Z,21.98
2016-08-14T09:28:17.713Z,21.85
2016-08-14T09:30:11.547Z,21.80
2016-08-14T09:31:23.182Z,21.76
2016-08-14T09:32:13.401Z,21.84
2016-08-14T09:33:28.680Z,21.88
2016-08-14T09:34:14.683Z,22.01
2016-08-14T09:36:23.532Z,22.09
2016-08-14T09:37:19.653Z,22.00
2016-08-14T09:38:15.432Z,21.98
2016-08-14T09:39:28.284Z,21.96
2016-08-14T09:40:12.059Z,22.05
2016-08-14T09:41:11.763Z,22.24
2016-08-14T09:42:28.842Z,22.23
2016-08-14T09:43:28.175Z,22.18
2016-08-14T09:44:14.654Z,22.12
2016-08-14T09:45:18.900Z,22.06
2016-08-14T09:46:21.051Z,22.03
2016-08-14T09:47:22.822Z,22.17
2016-08-14T09:50:18.355Z,22.13
2016-08-14T09:51:28.205Z,22.27
2016-08-14T09:53:20.402Z,22.18
2016-08-14T09:54:12.827Z,22.12
2016-08-14T09:55:28.337Z,22.08
2016-08-14T09:56:13.487Z,22.08
2016-08-14T09:57:28.780Z,22.16
2016-08-14T09:58:29.041Z,22.10
2016-08-14T10:00:29.489Z,22.25
2016-08-14T10:01:27.754Z,22.25
2016-08-14T10:02:26.723Z,22.24
2016-08-14T10:03:18.589Z,22.38
2016-08-14T10:04:20.051Z,22.39
2016-08-14T10:05:18.004Z,22.45
2016-08-14T10:07:12.428Z,22.76
2016-08-14T10:08:17.400Z,22.76
2016-08-14T10:09:23.500Z,22.70
2016-08-14T10:10:28.334Z,22.59
2016-08-14T10:11:12.177Z,22.56
2016-08-14T10:12:23.004Z,22.68
2016-08-14T10:14:20.833Z,22.64
2016-08-14T10:15:14.987Z,22.68
2016-08-14T10:17:11.612Z,22.56
2016-08-14T10:18:13.318Z,22.56
2016-08-14T10:19:12.013Z,22.69
2016-08-14T10:20:20.729Z,22.66
2016-08-14T10:21:17.909Z,22.68
2016-08-14T10:23:17.755Z,22.82
2016-08-14T10:24:28.464Z,22.87
2016-08-14T10:25:17.170Z,22.88
2016-08-14T10:26:13.360Z,22.86
2016-08-14T10:27:13.171Z,22.87
2016-08-14T10:28:20.428Z,22.82
2016-08-14T10:29:13.398Z,22.90
2016-08-14T10:31:16.310Z,22.86
2016-08-14T10:32:28.562Z,22.87
2016-08-14T10:33:17.732Z,22.92
2016-08-14T10:34:12.249Z,22.92
2016-08-14T10:35:12.230Z,22.91
2016-08-14T10:36:23.274Z,22.87
2016-08-14T10:37:20.394Z,22.86
2016-08-14T10:38:27.278Z,22.89
2016-08-14T10:39:23.446Z,23.14
2016-08-14T10:40:12.549Z,23.26
2016-08-14T10:41:14.968Z,23.21
2016-08-14T10:42:12.400Z,23.42
2016-08-14T10:43:12.782Z,23.43
2016-08-14T10:44:12.209Z,23.46
2016-08-14T10:45:23.242Z,23.40
2016-08-14T10:46:31.688Z,23.50
2016-08-14T10:47:12.292Z,23.55
2016-08-14T10:48:28.107Z,23.53
2016-08-14T10:49:19.194Z,23.49
2016-08-14T10:50:21.272Z,23.43
2016-08-14T10:51:18.761Z,23.41
2016-08-14T10:52:23.343Z,23.38
2016-08-14T10:53:12.713Z,23.34
2016-08-14T10:54:12.410Z,23.25
2016-08-14T10:56:40.458Z,23.22
2016-08-14T10:57:16.574Z,23.37
2016-08-14T10:58:17.900Z,23.45
2016-08-14T10:59:12.111Z,23.35
2016-08-14T11:01:12.750Z,23.46
2016-08-14T11:02:14.233Z,23.47
2016-08-14T11:03:20.138Z,23.37
2016-08-14T11:05:12.293Z,23.29
2016-08-14T11:07:22.950Z,23.34
2016-08-14T11:08:19.138Z,23.27
2016-08-14T11:09:11.819Z,23.21
2016-08-14T11:10:12.386Z,23.24
2016-08-14T11:11:23.145Z,23.20
2016-08-14T11:12:17.823Z,23.21
2016-08-14T11:13:12.036Z,23.29
2016-08-14T11:14:18.999Z,23.24
2016-08-14T11:15:11.793Z,23.21
2016-08-14T11:16:13.418Z,23.27
2016-08-14T11:17:34.484Z,23.22
2016-08-14T11:19:20.782Z,23.26
2016-08-14T11:20:12.318Z,23.41
2016-08-14T11:21:18.477Z,23.44
2016-08-14T11:25:29.522Z,23.47
2016-08-14T11:26:21.701Z,23.52
2016-08-14T11:27:20.803Z,23.58
2016-08-14T11:28:13.668Z,23.67
2016-08-14T11:29:28.910Z,23.84
2016-08-14T11:30:23.185Z,23.86
2016-08-14T11:31:17.461Z,23.73
2016-08-14T11:32:11.606Z,23.65
2016-08-14T11:33:12.473Z,23.56
2016-08-14T11:34:16.330Z,23.66
2016-08-14T11:35:23.461Z,23.99
2016-08-14T11:36:19.559Z,24.08
2016-08-14T11:37:12.997Z,24.12
2016-08-14T11:38:20.886Z,24.21
2016-08-14T11:39:17.631Z,24.12
2016-08-14T11:40:22.492Z,24.04
2016-08-14T11:41:18.164Z,24.09
2016-08-14T11:42:28.620Z,24.02
2016-08-14T11:44:11.646Z,23.83
2016-08-14T11:45:12.113Z,23.76
2016-08-14T11:46:20.650Z,23.72
2016-08-14T11:47:23.020Z,23.72
2016-08-14T11:48:17.891Z,23.70
2016-08-14T11:49:12.050Z,23.62
2016-08-14T11:50:12.106Z,23.56
2016-08-14T11:51:20.229Z,23.67
2016-08-14T11:52:25.550Z,23.74
2016-08-14T11:54:12.234Z,23.74
2016-08-14T11:55:21.562Z,23.79
2016-08-14T11:57:28.405Z,23.81
2016-08-14T11:58:28.671Z,24.12
2016-08-14T11:59:12.297Z,24.08
2016-08-14T12:01:20.573Z,24.35
2016-08-14T12:03:19.923Z,24.18
2016-08-14T12:04:22.880Z,24.19
2016-08-14T12:05:14.899Z,24.21
2016-08-14T12:06:18.863Z,24.48
2016-08-14T12:07:12.698Z,24.43
2016-08-14T12:08:12.460Z,24.33
2016-08-14T12:09:21.482Z,24.40
2016-08-14T12:10:20.556Z,24.38
2016-08-14T12:11:12.538Z,24.35
2016-08-14T12:12:11.623Z,24.29
2016-08-14T12:13:11.904Z,24.32
2016-08-14T12:15:17.106Z,24.27
2016-08-14T12:16:23.453Z,24.31
2016-08-14T12:17:20.146Z,24.53
2016-08-14T12:18:29.406Z,24.70
2016-08-14T12:19:17.949Z,24.69
2016-08-14T12:20:20.196Z,24.60
2016-08-14T12:21:28.942Z,24.59
2016-08-14T12:22:23.085Z,24.60
2016-08-14T12:23:19.264Z,24.71
2016-08-14T12:24:20.048Z,25.04
2016-08-14T12:25:20.015Z,24.97
2016-08-14T12:27:15.803Z,24.80
2016-08-14T12:28:18.607Z,24.90
2016-08-14T12:30:27.639Z,24.86
2016-08-14T12:31:17.584Z,24.75
2016-08-14T12:33:18.537Z,24.78
2016-08-14T12:34:20.592Z,24.75
2016-08-14T12:35:20.720Z,24.70
2016-08-14T12:36:12.026Z,24.74
2016-08-14T12:37:17.254Z,24.79
2016-08-14T12:39:15.382Z,24.76
2016-08-14T12:40:21.551Z,24.69
2016-08-14T12:42:11.921Z,24.80
2016-08-14T12:43:18.430Z,24.91
2016-08-14T12:45:19.866Z,25.05
2016-08-14T12:46:12.964Z,25.01
2016-08-14T12:47:18.738Z,25.14
2016-08-14T12:48:12.280Z,25.22
2016-08-14T12:49:20.604Z,25.32
2016-08-14T12:50:19.691Z,25.22
2016-08-14T12:51:18.285Z,25.24
2016-08-14T12:52:13.846Z,25.29
2016-08-14T12:53:16.943Z,25.41
2016-08-14T12:54:20.078Z,25.55
2016-08-14T12:55:22.826Z,25.60
2016-08-14T12:56:17.365Z,25.69
2016-08-14T12:57:16.544Z,25.78
2016-08-14T12:59:18.539Z,25.92
2016-08-14T13:00:17.884Z,25.68
2016-08-14T13:01:13.458Z,25.48
2016-08-14T13:02:15.109Z,25.20
2016-08-14T13:03:12.458Z,25.04
2016-08-14T13:04:28.334Z,24.84
2016-08-14T13:05:15.665Z,24.76
2016-08-14T13:06:14.724Z,24.63
2016-08-14T13:07:18.328Z,24.65
2016-08-14T13:08:21.973Z,24.93
2016-08-14T13:09:18.180Z,25.26
2016-08-14T13:10:15.650Z,25.52
2016-08-14T13:11:26.487Z,25.80
2016-08-14T13:12:21.041Z,25.80
2016-08-14T13:13:16.550Z,25.69
2016-08-14T13:14:18.049Z,25.74
2016-08-14T13:15:12.323Z,25.80
2016-08-14T13:16:17.379Z,25.82
2016-08-14T13:17:11.373Z,25.89
2016-08-14T13:18:13.031Z,25.91
2016-08-14T13:19:12.877Z,25.89
2016-08-14T13:20:12.575Z,25.94
2016-08-14T13:21:11.923Z,26.04
2016-08-14T13:22:18.728Z,26.22
2016-08-14T13:24:20.778Z,26.28
2016-08-14T13:25:13.341Z,26.35
2016-08-14T13:26:12.689Z,26.62
2016-08-14T13:27:10.624Z,26.80
2016-08-14T13:28:22.916Z,26.96
2016-08-14T13:29:21.584Z,26.67
2016-08-14T13:30:23.232Z,26.58
2016-08-14T13:31:12.982Z,26.88
2016-08-14T13:32:12.075Z,26.82
2016-08-14T13:33:11.922Z,26.74
2016-08-14T13:34:29.004Z,26.19
2016-08-14T13:35:11.867Z,25.99
2016-08-14T13:36:12.885Z,25.84
2016-08-14T13:37:12.987Z,25.83
2016-08-14T13:38:15.472Z,25.66
2016-08-14T13:39:18.971Z,25.46
2016-08-14T13:40:16.998Z,25.43
2016-08-14T13:41:13.213Z,25.41
2016-08-14T13:42:12.406Z,25.49
2016-08-14T13:43:23.120Z,26.00
2016-08-14T13:44:12.492Z,26.33
2016-08-14T13:45:23.197Z,26.75
2016-08-14T13:47:17.517Z,27.34
2016-08-14T13:48:14.485Z,27.46
2016-08-14T13:49:11.941Z,27.59
2016-08-14T13:50:11.582Z,27.79
2016-08-14T13:51:16.795Z,27.99
2016-08-14T13:52:13.058Z,28.07
2016-08-14T13:53:08.538Z,28.15
2016-08-14T13:54:24.727Z,28.25
2016-08-14T13:55:11.857Z,28.25
2016-08-14T13:56:17.516Z,28.07
2016-08-14T13:57:12.031Z,28.33
2016-08-14T13:58:19.004Z,27.86
2016-08-14T13:59:12.585Z,28.05
2016-08-14T14:00:15.814Z,28.00
2016-08-14T14:01:12.576Z,27.86
2016-08-14T14:02:12.533Z,27.25
2016-08-14T14:03:11.785Z,26.92
2016-08-14T14:04:11.529Z,26.64
2016-08-14T14:05:13.047Z,26.41
2016-08-14T14:06:17.857Z,26.25
2016-08-14T14:07:11.875Z,26.10
2016-08-14T14:08:17.556Z,26.02
2016-08-14T14:09:16.993Z,26.05
2016-08-14T14:10:29.006Z,26.35
2016-08-14T14:12:17.892Z,26.18
2016-08-14T14:13:22.790Z,26.26
2016-08-14T14:14:12.043Z,26.11
2016-08-14T14:16:17.488Z,26.58
2016-08-14T14:17:16.789Z,27.00
2016-08-14T14:18:12.747Z,27.09
2016-08-14T14:19:17.634Z,27.05
2016-08-14T14:21:17.965Z,27.22
2016-08-14T14:22:16.801Z,27.28
2016-08-14T14:23:17.885Z,27.16
2016-08-14T14:24:17.169Z,27.04
2016-08-14T14:25:12.045Z,26.70
2016-08-14T14:27:12.133Z,26.46
2016-08-14T14:28:18.924Z,26.23
2016-08-14T14:29:18.495Z,26.17
2016-08-14T14:30:12.226Z,26.13
2016-08-14T14:31:20.334Z,26.28
2016-08-14T14:32:33.993Z,26.10
2016-08-14T14:33:23.010Z,25.95
2016-08-14T14:34:22.885Z,25.97
2016-08-14T14:35:29.488Z,25.99
2016-08-14T14:36:17.340Z,26.11
2016-08-14T14:37:17.969Z,26.24
2016-08-14T14:38:18.514Z,26.33
2016-08-14T14:39:17.739Z,26.35
2016-08-14T14:40:11.651Z,26.32
2016-08-14T14:41:13.173Z,26.20
2016-08-14T14:42:14.538Z,26.20
2016-08-14T14:43:29.355Z,26.21
2016-08-14T14:44:11.587Z,26.25
2016-08-14T14:45:12.174Z,26.30
2016-08-14T14:46:17.550Z,26.17
2016-08-14T14:47:17.945Z,26.12
2016-08-14T14:48:12.684Z,26.01
2016-08-14T14:49:12.136Z,25.93
2016-08-14T14:50:18.405Z,25.98
2016-08-14T14:51:12.256Z,26.01
2016-08-14T14:52:19.400Z,26.15
2016-08-14T14:53:18.689Z,26.25
2016-08-14T14:55:11.591Z,26.26
2016-08-14T14:56:11.715Z,26.29
2016-08-14T14:58:20.398Z,26.07
2016-08-14T14:59:12.591Z,26.02
2016-08-14T15:00:18.883Z,26.09
2016-08-14T15:01:17.536Z,26.14
2016-08-14T15:02:11.993Z,26.22
2016-08-14T15:03:15.372Z,26.21
2016-08-14T15:04:19.275Z,26.18
2016-08-14T15:06:36.469Z,26.08
2016-08-14T15:07:17.601Z,26.06
2016-08-14T15:08:17.969Z,25.97
2016-08-14T15:09:16.860Z,25.88
2016-08-14T15:10:17.622Z,25.82
2016-08-14T15:11:19.742Z,25.81
2016-08-14T15:12:18.111Z,25.89
2016-08-14T15:13:17.440Z,26.07
2016-08-14T15:14:17.706Z,26.17
2016-08-14T15:15:35.183Z,26.22
2016-08-14T15:16:18.722Z,26.29
2016-08-14T15:17:17.860Z,26.41
2016-08-14T15:18:12.675Z,26.58
2016-08-14T15:19:23.270Z,26.73
2016-08-14T15:20:29.504Z,27.01
2016-08-14T15:21:11.784Z,27.20
2016-08-14T15:22:31.693Z,27.51
2016-08-14T15:23:17.517Z,27.54
2016-08-14T15:24:12.315Z,27.90
2016-08-14T15:25:18.128Z,28.24
2016-08-14T15:26:17.995Z,28.38
2016-08-14T15:28:20.156Z,28.77
2016-08-14T15:29:12.226Z,28.94
2016-08-14T15:30:12.513Z,29.10
2016-08-14T15:31:23.734Z,29.40
2016-08-14T15:32:13.335Z,29.72
2016-08-14T15:33:12.852Z,29.14
2016-08-14T15:35:16.817Z,29.31
2016-08-14T15:36:15.215Z,29.60
2016-08-14T15:37:29.195Z,29.28
2016-08-14T15:38:07.224Z,28.91
2016-08-14T15:39:18.201Z,28.68
2016-08-14T15:40:17.373Z,28.57
2016-08-14T15:41:12.157Z,28.21
2016-08-14T15:42:20.665Z,27.92
2016-08-14T15:43:17.667Z,28.84
2016-08-14T15:44:11.971Z,29.72
2016-08-14T15:45:11.784Z,30.29
2016-08-14T15:46:11.947Z,30.36
2016-08-14T15:47:29.533Z,30.88
2016-08-14T15:48:11.734Z,31.37
2016-08-14T15:49:17.930Z,31.24
2016-08-14T15:50:16.881Z,31.37
2016-08-14T15:51:11.874Z,31.54
2016-08-14T15:52:17.451Z,31.62
2016-08-14T15:53:11.706Z,31.85
2016-08-14T15:54:13.820Z,31.80
2016-08-14T15:55:11.626Z,31.83
2016-08-14T15:56:12.392Z,31.94